createdAt,value
2023-05-05T00:00:39.038Z,100915.94
2023-05-05T00:05:42.255Z,100926.44
2023-05-05T00:10:48.478Z,100933.34
2023-05-05T00:15:52.546Z,100931.13
2023-05-05T00:20:54.706Z,100924.50
2023-05-05T00:25:56.983Z,100928.31
2023-05-05T00:30:59.610Z,100922.00
2023-05-05T00:36:01.840Z,100925.03
2023-05-05T00:41:04.119Z,100910.97
2023-05-05T00:46:24.721Z,100919.22
2023-05-05T00:51:28.352Z,100926.09
2023-05-05T00:56:31.223Z,100921.66
2023-05-05T01:01:33.818Z,100911.69
2023-05-05T01:07:18.882Z,100916.16
2023-05-05T01:12:51.566Z,100919.09
2023-05-05T01:18:44.620Z,100918.53
2023-05-05T01:24:05.323Z,100906.97
2023-05-05T01:29:23.225Z,100909.16
2023-05-05T01:34:34.435Z,100913.56
2023-05-05T01:39:38.794Z,100914.91
2023-05-05T01:44:44.888Z,100890.03
2023-05-05T01:49:48.772Z,100901.06
2023-05-05T01:54:52.898Z,100903.25
2023-05-05T01:59:56.871Z,100912.03
2023-05-05T02:05:00.183Z,100911.72
2023-05-05T02:10:03.238Z,100903.38
2023-05-05T02:15:06.252Z,100894.09
2023-05-05T02:20:11.929Z,100899.84
2023-05-05T02:25:14.299Z,100902.00
2023-05-05T02:30:19.880Z,100900.09
2023-05-05T02:35:27.273Z,100895.13
2023-05-05T02:40:33.052Z,100907.69
2023-05-05T02:45:35.257Z,100896.06
2023-05-05T02:50:37.415Z,100909.19
2023-05-05T02:55:45.357Z,100900.56
2023-05-05T03:01:07.365Z,100899.16
2023-05-05T03:06:20.817Z,100904.81
2023-05-05T03:11:29.176Z,100906.47
2023-05-05T03:16:34.637Z,100905.06
2023-05-05T03:21:37.332Z,100907.56
2023-05-05T03:26:39.495Z,100896.28
2023-05-05T03:31:42.284Z,100913.31
2023-05-05T03:36:44.509Z,100899.50
2023-05-05T03:41:46.662Z,100907.38
2023-05-05T03:46:48.875Z,100899.09
2023-05-05T03:51:51.211Z,100905.16
2023-05-05T03:56:53.375Z,100907.41
2023-05-05T04:01:55.520Z,100914.00
2023-05-05T04:06:57.718Z,100922.56
2023-05-05T04:11:59.868Z,100921.78
2023-05-05T04:17:02.149Z,100919.34
2023-05-05T04:22:04.307Z,100923.00
2023-05-05T04:27:06.523Z,100926.09
2023-05-05T04:32:08.699Z,100920.34
2023-05-05T04:37:10.848Z,100929.25
2023-05-05T04:42:12.971Z,100936.16
2023-05-05T04:47:15.060Z,100943.69
2023-05-05T04:52:17.205Z,100936.06
2023-05-05T04:57:19.343Z,100939.69
2023-05-05T05:02:21.661Z,100952.69
2023-05-05T05:07:24.129Z,100956.28
2023-05-05T05:12:26.248Z,100954.66
2023-05-05T05:17:30.135Z,100954.91
2023-05-05T05:22:32.377Z,100962.16
2023-05-05T05:27:34.579Z,100960.78
2023-05-05T05:32:36.822Z,100961.34
2023-05-05T05:37:39.048Z,100959.75
2023-05-05T05:42:41.983Z,100971.94
2023-05-05T05:47:44.156Z,100964.53
2023-05-05T05:52:46.482Z,100970.56
2023-05-05T05:57:48.685Z,100976.03
2023-05-05T06:02:51.664Z,100973.25
2023-05-05T06:07:53.892Z,100973.75
2023-05-05T06:12:56.486Z,100976.19
2023-05-05T06:17:58.846Z,100983.53
2023-05-05T06:23:01.183Z,100976.31
2023-05-05T06:28:04.439Z,100973.16
2023-05-05T06:33:06.581Z,100963.84
2023-05-05T06:38:09.794Z,100968.69
2023-05-05T06:43:11.992Z,100952.81
2023-05-05T06:48:14.151Z,100957.94
2023-05-05T06:53:16.337Z,100957.06
2023-05-05T06:58:18.471Z,100949.03
2023-05-05T07:03:20.712Z,100954.81
2023-05-05T07:08:22.925Z,100952.56
2023-05-05T07:13:25.113Z,100948.81
2023-05-05T07:18:27.418Z,100952.09
2023-05-05T07:23:29.637Z,100948.53
2023-05-05T07:28:31.774Z,100955.16
2023-05-05T07:33:33.912Z,100944.00
2023-05-05T07:38:36.212Z,100943.13
2023-05-05T07:43:42.290Z,100948.63
2023-05-05T07:48:45.820Z,100946.03
2023-05-05T07:53:47.935Z,100936.72
2023-05-05T07:58:50.102Z,100934.75
2023-05-05T08:03:52.322Z,100931.00
2023-05-05T08:08:55.845Z,100940.62
2023-05-05T08:13:58.568Z,100932.56
2023-05-05T08:19:00.818Z,100937.38
2023-05-05T08:24:02.977Z,100930.09
2023-05-05T08:29:05.240Z,100921.97
2023-05-05T08:34:07.598Z,100927.09
2023-05-05T08:39:09.923Z,100918.34
2023-05-05T08:44:12.180Z,100925.53
2023-05-05T08:49:17.813Z,100922.09
2023-05-05T08:54:22.910Z,100919.94
2023-05-05T08:59:26.020Z,100908.81
2023-05-05T09:04:28.687Z,100913.75
2023-05-05T09:09:31.077Z,100909.69
2023-05-05T09:14:33.279Z,100896.47
2023-05-05T09:20:00.757Z,100895.13
2023-05-05T09:25:04.054Z,100890.31
2023-05-05T09:30:07.067Z,100881.50
2023-05-05T09:35:09.664Z,100878.38
2023-05-05T09:40:14.576Z,100877.00
2023-05-05T09:45:19.920Z,100866.41
2023-05-05T09:50:22.428Z,100857.16
2023-05-05T09:55:25.646Z,100854.16
2023-05-05T10:00:39.670Z,100848.66
2023-05-05T10:05:51.939Z,100859.25
2023-05-05T10:10:56.815Z,100848.66
2023-05-05T10:16:01.112Z,100846.41
2023-05-05T10:21:04.393Z,100832.06
2023-05-05T10:26:07.738Z,100837.50
2023-05-05T10:31:25.777Z,100835.00
2023-05-05T10:36:29.865Z,100825.19
2023-05-05T10:41:33.402Z,100828.16
2023-05-05T10:46:35.697Z,100810.44
2023-05-05T10:51:49.810Z,100805.72
2023-05-05T10:56:52.531Z,100800.00
2023-05-05T11:01:54.767Z,100779.75
2023-05-05T11:07:11.848Z,100790.03
2023-05-05T11:12:16.700Z,100772.28
2023-05-05T11:17:44.384Z,100768.31
2023-05-05T11:23:05.368Z,100770.03
2023-05-05T11:28:13.359Z,100750.69
2023-05-05T11:33:36.054Z,100748.66
2023-05-05T11:38:56.745Z,100750.03
2023-05-05T11:44:17.177Z,100743.69
2023-05-05T11:49:39.245Z,100731.41
2023-05-05T11:54:48.129Z,100722.41
2023-05-05T11:59:54.765Z,100718.56
2023-05-05T12:04:58.199Z,100704.69
2023-05-05T12:10:01.260Z,100710.50
2023-05-05T12:15:04.327Z,100701.19
2023-05-05T12:20:07.671Z,100692.38
2023-05-05T12:25:10.626Z,100692.94
2023-05-05T12:30:15.664Z,100677.81
2023-05-05T12:35:19.881Z,100678.50
2023-05-05T12:40:45.068Z,100691.25
2023-05-05T12:45:47.308Z,100680.59
2023-05-05T12:50:49.651Z,100667.59
2023-05-05T12:55:52.083Z,100668.41
2023-05-05T13:01:10.801Z,100655.84
2023-05-05T13:06:27.112Z,100653.59
2023-05-05T13:11:29.457Z,100650.22
2023-05-05T13:16:32.347Z,100631.84
2023-05-05T13:21:34.541Z,100628.22
2023-05-05T13:26:36.776Z,100632.75
2023-05-05T13:31:38.907Z,100618.59
2023-05-05T13:36:41.104Z,100610.28
2023-05-05T13:41:44.837Z,100604.41
2023-05-05T13:46:47.247Z,100596.72
2023-05-05T13:51:49.509Z,100592.91
2023-05-05T13:56:51.633Z,100591.78
2023-05-05T14:01:54.050Z,100589.59
2023-05-05T14:06:58.243Z,100585.44
2023-05-05T14:12:00.366Z,100575.22
2023-05-05T14:17:02.682Z,100579.28
2023-05-05T14:22:04.914Z,100578.28
2023-05-05T14:27:07.197Z,100567.59
2023-05-05T14:32:09.452Z,100561.06
2023-05-05T14:37:11.673Z,100563.34
2023-05-05T14:42:13.837Z,100566.34
2023-05-05T14:47:16.002Z,100558.38
2023-05-05T14:52:18.128Z,100555.13
2023-05-05T14:57:26.329Z,100558.31
2023-05-05T15:02:28.518Z,100558.09
2023-05-05T15:07:30.675Z,100549.37
2023-05-05T15:12:33.079Z,100542.53
2023-05-05T15:17:37.432Z,100547.84
2023-05-05T15:22:39.772Z,100547.69
2023-05-05T15:27:42.153Z,100535.78
2023-05-05T15:32:44.334Z,100544.56
2023-05-05T15:37:46.505Z,100545.16
2023-05-05T15:42:49.924Z,100538.75
2023-05-05T15:47:52.941Z,100542.00
2023-05-05T15:52:56.950Z,100537.47
2023-05-05T15:57:59.237Z,100533.50
2023-05-05T16:03:01.416Z,100530.59
2023-05-05T16:08:09.653Z,100532.00
2023-05-05T16:13:12.011Z,100537.41
2023-05-05T16:18:14.246Z,100518.37
2023-05-05T16:23:16.524Z,100527.00
2023-05-05T16:28:18.723Z,100527.28
2023-05-05T16:33:20.884Z,100526.69
2023-05-05T16:38:23.111Z,100525.03
2023-05-05T16:43:25.281Z,100523.31
2023-05-05T16:48:27.457Z,100518.66
2023-05-05T16:53:29.671Z,100525.44
2023-05-05T16:58:32.004Z,100520.25
2023-05-05T17:03:34.143Z,100513.69
2023-05-05T17:08:36.310Z,100514.87
2023-05-05T17:13:38.581Z,100525.37
2023-05-05T17:18:41.157Z,100522.50
2023-05-05T17:23:43.332Z,100519.03
2023-05-05T17:28:45.518Z,100524.69
2023-05-05T17:33:47.751Z,100531.22
2023-05-05T17:38:49.936Z,100526.13
2023-05-05T17:43:52.148Z,100534.34
2023-05-05T17:48:54.787Z,100536.41
2023-05-05T17:53:57.089Z,100534.63
2023-05-05T17:59:00.570Z,100537.56
2023-05-05T18:04:02.995Z,100532.13
2023-05-05T18:09:05.168Z,100542.56
2023-05-05T18:14:07.304Z,100547.06
2023-05-05T18:19:09.491Z,100538.75
2023-05-05T18:24:20.126Z,100552.53
2023-05-05T18:29:22.985Z,100553.97
2023-05-05T18:34:25.170Z,100561.03
2023-05-05T18:39:27.369Z,100565.72
2023-05-05T18:44:29.637Z,100560.81
2023-05-05T18:49:31.843Z,100566.22
2023-05-05T18:54:36.248Z,100566.22
2023-05-05T18:59:39.880Z,100576.88
2023-05-05T19:04:42.507Z,100577.47
2023-05-05T19:15:01.585Z,100596.50
2023-05-05T19:20:04.242Z,100601.12
2023-05-05T19:25:22.816Z,100595.81
2023-05-05T19:30:25.153Z,100599.87
2023-05-05T19:35:27.964Z,100597.00
2023-05-05T19:40:30.689Z,100594.66
2023-05-05T19:45:36.594Z,100598.22
2023-05-05T19:50:38.879Z,100593.94
2023-05-05T19:55:41.152Z,100596.87
2023-05-05T20:00:43.358Z,100597.78
2023-05-05T20:05:45.617Z,100594.62
2023-05-05T20:10:49.187Z,100593.63
2023-05-05T20:15:51.674Z,100595.81
2023-05-05T20:20:53.965Z,100598.09
2023-05-05T20:25:56.799Z,100600.03
2023-05-05T20:31:00.718Z,100596.09
2023-05-05T20:36:03.174Z,100597.22
2023-05-05T20:41:05.907Z,100594.38
2023-05-05T20:46:13.357Z,100587.38
2023-05-05T20:51:15.835Z,100592.34
2023-05-05T20:56:18.041Z,100595.88
2023-05-05T21:01:20.266Z,100600.69
2023-05-05T21:06:22.494Z,100589.28
2023-05-05T21:11:24.662Z,100596.31
2023-05-05T21:16:26.873Z,100591.31
2023-05-05T21:21:29.078Z,100596.84
2023-05-05T21:26:31.267Z,100594.81
2023-05-05T21:31:33.536Z,100584.75
2023-05-05T21:36:36.815Z,100585.47
2023-05-05T21:41:39.049Z,100582.63
2023-05-05T21:46:41.437Z,100576.66
2023-05-05T21:51:44.961Z,100564.66
2023-05-05T21:56:47.196Z,100556.38
2023-05-05T22:01:49.812Z,100562.81
2023-05-05T22:06:52.276Z,100556.81
2023-05-05T22:11:54.450Z,100557.94
2023-05-05T22:16:57.241Z,100555.31
2023-05-05T22:21:59.430Z,100557.81
2023-05-05T22:27:01.921Z,100569.59
2023-05-05T22:32:04.078Z,100571.94
2023-05-05T22:37:06.223Z,100572.22
2023-05-05T22:42:08.540Z,100585.34
2023-05-05T22:47:10.805Z,100585.47
2023-05-05T22:52:13.723Z,100588.28
2023-05-05T22:57:15.927Z,100598.34
2023-05-05T23:02:18.145Z,100591.28
2023-05-05T23:07:20.466Z,100592.63
2023-05-05T23:12:22.723Z,100595.03
2023-05-05T23:17:25.391Z,100593.75
2023-05-05T23:22:27.547Z,100581.94
2023-05-05T23:27:29.898Z,100585.87
2023-05-05T23:32:32.108Z,100583.91
2023-05-05T23:37:34.285Z,100581.25
2023-05-05T23:42:36.468Z,100575.75
2023-05-05T23:47:38.688Z,100582.94
2023-05-05T23:52:41.854Z,100573.03
2023-05-05T23:57:44.053Z,100578.00
